aviador You're here:

KATL Decoded Metar

ATLANTA in GA, USA
Report Time2017-08-18 15:52:00
UTC Time2017-08-18 16:27:39
Flight Rules mvfr MVFR
Wind260° at 08 kt
W.Decomp.*RWY 26: 8.0 kt HW 0.7 kt RCW
RWY 27: 8.0 kt HW 0.7 kt LCW
RWY 28: 7.7 kt HW 2.1 kt LCW
W.Rank260° ranks 17
Current wind is above 260° avg. (6.6)
Visibility9999 m
Phenomena:N/A
Clouds:Broken 025 Hf
Broken 032 Hf
Expected CloudBase > 2,400 ft AGL from Temp-Dew spread
Ceiling2,500 ft
Temp28°C (ISA +15)
Dew Point22°C (70% RH)
Heat Index30.7°C
QNH1017 hPa
Density Alt2,904 ft
Elevation971 ft
Report Wrong Elevation
Raw Report
KATL 181552Z 26008KT 10SM BKN025 BKN032 28/22 A3003 RMK AO2 SLP157
T02830222=

Extra information for KATL:More info

Metar Taf Metar & Taf Last 4 Metars F.Rules Stats Wind Profile Meteogram Temp Stats Airport Information Weather charts Add Link Nearby VenuesMetar ALERT Operation Metar Decoded Social comments

AIRNAV info for KATL